Time;durP1;ratioP1;P1;durP2;ratioP2;P2;SDS_P1;SDS_P2;PMS_P1;PMS_P2;Temp;Humidity;BMP_temperature;BMP_pressure;BME280_temperature;BME280_humidity;BME280_pressure;Samples;Min_cycle;Max_cycle;Signal;HPM_P1;HPM_P2
2021/12/19 00:03:06;;;;;;;10.50;7.10;;;;;;;-0.70;82.68;97942.27;108076;1272;59678;-74
2021/12/19 00:11:12;;;;;;;9.30;6.70;;;;;;;-0.69;82.29;97928.05;108075;1272;68630;-72
2021/12/19 00:13:42;;;;;;;13.70;9.10;;;;;;;-0.69;82.42;97931.46;108001;1272;68660;-73
2021/12/19 00:16:12;;;;;;;11.60;7.50;;;;;;;-0.68;82.62;97927.36;108015;1275;59824;-73
2021/12/19 00:18:43;;;;;;;13.40;7.20;;;;;;;-0.70;82.84;97923.95;108249;1272;59763;-73
2021/12/19 00:21:15;;;;;;;16.10;9.90;;;;;;;-0.73;83.22;97921.61;107686;1272;807147;-74
2021/12/19 00:23:46;;;;;;;12.20;8.70;;;;;;;-0.80;84.01;97919.53;108291;1272;67759;-73
2021/12/19 00:26:17;;;;;;;16.10;9.80;;;;;;;-0.83;84.14;97916.52;108115;1272;69485;-73
2021/12/19 00:28:49;;;;;;;16.10;9.50;;;;;;;-0.86;84.20;97910.41;108075;1272;59792;-73
2021/12/19 00:31:18;;;;;;;18.10;11.10;;;;;;;-0.91;84.88;97910.85;108119;1272;59693;-73
2021/12/19 00:33:47;;;;;;;15.80;10.30;;;;;;;-1.00;85.64;97909.66;108124;1272;71095;-73
2021/12/19 00:36:18;;;;;;;19.10;11.90;;;;;;;-1.03;85.84;97910.89;108188;1272;67815;-73
2021/12/19 00:38:48;;;;;;;21.80;12.50;;;;;;;-1.07;86.25;97911.64;108225;1272;69124;-73
2021/12/19 00:41:17;;;;;;;20.00;12.10;;;;;;;-1.10;86.61;97911.02;108224;1272;59697;-73
2021/12/19 00:43:54;;;;;;;23.20;12.30;;;;;;;-1.14;87.04;97911.27;108221;1272;59701;-73
2021/12/19 00:46:26;;;;;;;17.00;9.30;;;;;;;-1.14;87.59;97907.00;108081;1272;70915;-74
2021/12/19 00:48:56;;;;;;;20.40;11.70;;;;;;;-1.12;87.71;97906.27;108004;1275;68632;-74
2021/12/19 00:51:26;;;;;;;24.50;13.50;;;;;;;-1.14;88.14;97907.16;107981;1271;69147;-74
2021/12/19 00:53:56;;;;;;;19.60;11.70;;;;;;;-1.15;88.48;97902.58;108093;1271;59697;-73
2021/12/19 00:56:26;;;;;;;24.00;13.50;;;;;;;-1.16;88.57;97898.48;108089;1270;59636;-74
2021/12/19 00:58:55;;;;;;;24.90;14.50;;;;;;;-1.18;88.47;97890.83;108097;1272;71659;-73
2021/12/19 01:01:25;;;;;;;22.70;12.20;;;;;;;-1.20;88.76;97881.46;108128;1272;67461;-73
2021/12/19 01:03:54;;;;;;;16.60;9.60;;;;;;;-1.23;88.65;97876.54;108086;1271;69552;-73
2021/12/19 01:06:24;;;;;;;14.60;8.60;;;;;;;-1.18;87.83;97874.05;108115;1272;59777;-74
2021/12/19 01:08:54;;;;;;;14.40;8.20;;;;;;;-1.14;87.21;97873.45;108115;1272;59757;-73
2021/12/19 01:11:23;;;;;;;11.70;6.70;;;;;;;-1.07;86.42;97866.83;108156;1272;71563;-73
2021/12/19 01:13:53;;;;;;;12.40;7.50;;;;;;;-1.02;85.96;97866.21;108140;1272;68539;-73
2021/12/19 01:16:22;;;;;;;;;;;;;;;-0.96;85.63;97866.11;108122;1272;69466;-74
2021/12/19 01:18:52;;;;;;;15.50;9.10;;;;;;;-0.97;85.70;97862.02;108111;1272;59709;-73
2021/12/19 01:21:22;;;;;;;13.40;8.30;;;;;;;-1.02;86.09;97862.63;108106;1272;59682;-74
2021/12/19 01:23:51;;;;;;;17.60;10.30;;;;;;;-1.03;86.16;97863.14;108092;1272;71492;-73
2021/12/19 01:26:21;;;;;;;12.20;8.00;;;;;;;-1.06;86.37;97862.52;108102;1272;68806;-73
2021/12/19 01:28:51;;;;;;;12.90;8.30;;;;;;;-1.02;86.15;97865.20;108070;1275;68653;-73
2021/12/19 01:31:20;;;;;;;14.90;8.10;;;;;;;-1.05;86.47;97860.13;108075;1272;59773;-74
2021/12/19 01:33:50;;;;;;;17.50;9.60;;;;;;;-1.05;86.51;97859.10;108118;1272;59758;-74
2021/12/19 01:36:20;;;;;;;19.80;11.00;;;;;;;-1.09;86.93;97857.29;108120;1272;71413;-74
2021/12/19 01:38:49;;;;;;;16.50;9.50;;;;;;;-1.09;86.86;97854.20;108116;1272;67503;-74
2021/12/19 01:41:19;;;;;;;17.70;8.90;;;;;;;-1.08;86.79;97851.78;108077;1272;69440;-73
2021/12/19 01:43:48;;;;;;;14.50;9.50;;;;;;;-1.09;86.75;97845.66;108098;1272;59709;-74
2021/12/19 01:46:17;;;;;;;15.70;7.50;;;;;;;-1.11;86.76;97839.37;108074;1272;59685;-74
2021/12/19 01:48:47;;;;;;;11.90;7.50;;;;;;;-1.13;86.79;97838.90;108035;1272;71567;-73
2021/12/19 01:51:16;;;;;;;19.60;11.20;;;;;;;-1.14;87.10;97839.60;108016;1272;68529;-74
2021/12/19 01:53:46;;;;;;;14.10;8.80;;;;;;;-1.16;87.24;97839.80;108078;1274;69259;-73
2021/12/19 01:56:15;;;;;;;16.60;10.80;;;;;;;-1.12;86.82;97835.96;108065;1272;59760;-74
2021/12/19 01:58:46;;;;;;;24.00;13.70;;;;;;;-1.16;87.67;97831.09;108094;1272;59710;-73
2021/12/19 02:01:16;;;;;;;19.50;11.20;;;;;;;-1.19;88.06;97827.89;108079;1272;70810;-73
2021/12/19 02:03:45;;;;;;;19.90;12.70;;;;;;;-1.19;88.15;97827.38;108117;1272;68758;-73
2021/12/19 02:06:16;;;;;;;24.50;13.10;;;;;;;-1.24;88.70;97821.66;108130;1272;69414;-73
2021/12/19 02:08:49;;;;;;;25.30;12.60;;;;;;;-1.29;89.13;97819.88;108180;1272;59754;-75
2021/12/19 02:11:19;;;;;;;24.40;12.70;;;;;;;-1.34;89.36;97817.57;108065;1272;59704;-74
2021/12/19 02:13:48;;;;;;;22.70;13.10;;;;;;;-1.36;89.59;97814.36;108064;1272;71603;-72
2021/12/19 02:16:18;;;;;;;21.40;13.10;;;;;;;-1.35;89.46;97811.77;108101;1272;67865;-73
2021/12/19 02:18:48;;;;;;;21.10;11.90;;;;;;;-1.36;89.53;97811.98;108083;1272;68419;-73
2021/12/19 02:21:17;;;;;;;22.20;13.40;;;;;;;-1.39;89.52;97811.34;108119;1272;59770;-73
2021/12/19 02:23:47;;;;;;;21.10;13.80;;;;;;;-1.39;89.70;97808.26;108161;1271;59757;-73
2021/12/19 02:26:17;;;;;;;22.00;12.50;;;;;;;-1.40;89.74;97803.48;108106;1270;72107;-73
2021/12/19 02:28:46;;;;;;;23.70;13.40;;;;;;;-1.39;89.79;97799.71;108105;1272;68267;-74
2021/12/19 02:31:16;;;;;;;20.20;12.00;;;;;;;-1.40;89.76;97799.39;108046;1272;67448;-74
2021/12/19 02:33:58;;;;;;;19.60;12.60;;;;;;;-1.40;89.66;97797.34;108105;1272;60039;-73
2021/12/19 02:50:14;;;;;;;21.60;12.40;;;;;;;-1.40;89.73;97789.13;108136;1272;59706;-73
2021/12/19 02:52:44;;;;;;;18.80;12.50;;;;;;;-1.40;89.80;97784.35;107988;1275;71456;-72
2021/12/19 02:55:16;;;;;;;22.30;13.20;;;;;;;-1.41;89.84;97777.52;108100;1272;67837;-73
2021/12/19 02:57:49;;;;;;;24.70;14.30;;;;;;;-1.40;89.78;97775.61;108242;1272;69461;-73
2021/12/19 03:00:23;;;;;;;15.90;10.30;;;;;;;-1.39;89.79;97768.60;108279;1270;59748;-73
2021/12/19 03:02:53;;;;;;;22.00;14.00;;;;;;;-1.36;89.68;97762.90;108242;1272;59703;-73
2021/12/19 03:05:23;;;;;;;;;;;;;;;-1.37;89.68;97764.44;108110;1272;70726;-73
2021/12/19 03:07:55;;;;;;;21.20;12.50;;;;;;;-1.39;89.69;97766.88;108067;1272;67719;-74
2021/12/19 03:11:13;;;;;;;28.30;15.10;;;;;;;-1.38;89.78;97763.29;108112;1270;68802;-74
2021/12/19 03:18:51;;;;;;;21.50;12.30;;;;;;;-1.40;90.19;97763.67;108105;1272;71572;-73
2021/12/19 03:21:24;;;;;;;29.30;17.10;;;;;;;-1.43;90.23;97756.87;108131;1272;68453;-73
2021/12/19 03:23:53;;;;;;;23.30;13.30;;;;;;;-1.46;90.35;97753.35;108085;1272;69416;-75
2021/12/19 03:26:24;;;;;;;27.50;14.40;;;;;;;-1.46;90.50;97749.08;108122;1272;59741;-73
2021/12/19 03:28:54;;;;;;;21.20;12.90;;;;;;;-1.46;90.50;97750.45;108126;1272;59754;-74
2021/12/19 03:31:23;;;;;;;25.50;14.40;;;;;;;-1.43;90.49;97751.92;108122;1272;71405;-74
2021/12/19 03:33:53;;;;;;;25.70;16.40;;;;;;;-1.40;90.30;97749.81;108121;1272;68196;-73
2021/12/19 03:36:23;;;;;;;;;;;;;;;-1.43;90.39;97755.85;108062;1272;68913;-74
2021/12/19 03:38:57;;;;;;;24.70;15.40;;;;;;;-1.43;90.42;97762.02;108075;1272;59717;-73
2021/12/19 03:41:34;;;;;;;24.20;13.00;;;;;;;-1.43;90.43;97761.31;108155;1272;60041;-74
2021/12/19 03:44:05;;;;;;;25.70;15.40;;;;;;;-1.39;90.19;97758.34;108125;1272;71548;-74
2021/12/19 03:46:35;;;;;;;22.90;12.10;;;;;;;-1.39;90.30;97753.88;108081;1272;67843;-74
2021/12/19 03:49:04;;;;;;;;;;;;;;;-1.39;90.32;97747.57;108017;1272;69459;-74
2021/12/19 03:51:33;;;;;;;23.40;12.00;;;;;;;-1.43;90.16;97743.55;108109;1272;59680;-74
2021/12/19 03:54:03;;;;;;;30.20;18.30;;;;;;;-1.41;90.31;97745.57;108083;1272;59700;-72
2021/12/19 03:56:32;;;;;;;30.80;17.40;;;;;;;-1.45;90.25;97740.84;108131;1272;71536;-73
2021/12/19 03:59:02;;;;;;;14.30;10.10;;;;;;;-1.44;90.25;97735.70;108065;1272;67865;-73
2021/12/19 04:01:31;;;;;;;23.60;14.30;;;;;;;-1.41;90.23;97733.94;108072;1272;69497;-73
2021/12/19 04:04:01;;;;;;;24.30;15.40;;;;;;;-1.40;90.19;97729.11;108118;1272;59681;-72
2021/12/19 04:06:32;;;;;;;22.80;12.70;;;;;;;-1.41;90.16;97723.67;108120;1272;59656;-72
2021/12/19 04:09:03;;;;;;;23.40;14.60;;;;;;;-1.42;89.89;97717.20;108164;1272;69715;-73
2021/12/19 04:11:33;;;;;;;16.70;10.00;;;;;;;-1.40;89.75;97710.64;108057;1272;68456;-72
2021/12/19 04:14:02;;;;;;;20.60;14.00;;;;;;;-1.35;89.54;97710.02;108056;1275;67624;-72
2021/12/19 04:16:32;;;;;;;18.50;11.40;;;;;;;-1.35;89.55;97712.44;108043;1272;59725;-73
2021/12/19 04:19:01;;;;;;;19.70;11.50;;;;;;;-1.34;89.39;97712.23;108070;1272;59703;-73
2021/12/19 04:21:30;;;;;;;19.60;12.00;;;;;;;-1.34;89.30;97710.88;108071;1272;71563;-73
2021/12/19 04:24:00;;;;;;;17.30;11.80;;;;;;;-1.34;89.29;97705.05;108036;1272;67205;-73
2021/12/19 04:26:29;;;;;;;18.90;12.80;;;;;;;-1.32;89.08;97705.20;108052;1272;69437;-73
2021/12/19 04:28:59;;;;;;;19.60;13.90;;;;;;;-1.35;89.06;97701.66;108074;1275;59742;-73
2021/12/19 04:31:28;;;;;;;21.60;13.30;;;;;;;-1.38;89.12;97695.55;108069;1272;59687;-73
2021/12/19 04:33:58;;;;;;;20.80;13.40;;;;;;;-1.39;89.30;97695.42;108127;1272;70646;-72
2021/12/19 04:36:36;;;;;;;;;;;;;;;-1.42;89.29;97692.40;108153;1272;67822;-74
2021/12/19 04:39:35;;;;;;;16.30;10.60;;;;;;;-1.42;89.37;97691.05;108099;1272;69438;-73
2021/12/19 04:53:13;;;;;;;12.50;9.00;;;;;;;-1.38;88.79;97684.80;108046;1272;69429;-74
2021/12/19 05:01:57;;;;;;;17.70;10.40;;;;;;;-1.34;88.57;97678.73;108100;1272;71679;-73
2021/12/19 05:04:40;;;;;;;19.20;12.20;;;;;;;-1.36;88.77;97676.89;108067;1272;68663;-74
2021/12/19 05:15:17;;;;;;;13.90;8.90;;;;;;;-1.40;89.07;97666.38;108098;1274;70610;-73
2021/12/19 05:17:48;;;;;;;11.90;8.20;;;;;;;-1.37;89.02;97665.98;108067;1274;67051;-74
2021/12/19 05:20:21;;;;;;;14.60;9.80;;;;;;;-1.35;88.96;97661.80;108343;1272;68737;-73
2021/12/19 05:22:55;;;;;;;23.20;14.80;;;;;;;-1.34;89.05;97656.66;108249;1272;59755;-74
2021/12/19 05:25:26;;;;;;;20.90;14.30;;;;;;;-1.38;89.27;97657.61;108382;1269;59701;-74
2021/12/19 05:27:57;;;;;;;20.60;12.60;;;;;;;-1.42;89.43;97657.02;108343;1269;70848;-74
2021/12/19 05:30:26;;;;;;;17.10;11.00;;;;;;;-1.47;89.83;97661.23;108286;1272;68076;-72
2021/12/19 05:32:56;;;;;;;18.10;10.90;;;;;;;-1.44;89.89;97667.66;108326;1269;67592;-73
2021/12/19 05:35:55;;;;;;;20.40;12.70;;;;;;;-1.41;89.70;97668.95;108231;1269;59834;-74
2021/12/19 05:47:03;;;;;;;17.50;10.40;;;;;;;-1.48;90.06;97659.19;108263;1272;69609;-73
2021/12/19 05:49:33;;;;;;;13.60;10.10;;;;;;;-1.46;89.95;97655.39;108267;1273;59712;-75
2021/12/19 05:52:02;;;;;;;14.90;10.20;;;;;;;-1.43;89.82;97654.98;108109;1272;59706;-73
2021/12/19 05:54:31;;;;;;;21.90;13.80;;;;;;;-1.39;89.57;97653.36;108345;1269;70921;-73
2021/12/19 05:57:01;;;;;;;18.00;11.10;;;;;;;-1.42;89.83;97649.15;108354;1273;68513;-73
2021/12/19 05:59:31;;;;;;;21.70;15.30;;;;;;;-1.41;89.77;97645.72;108432;1273;69409;-73
2021/12/19 06:02:00;;;;;;;20.10;12.80;;;;;;;-1.43;89.77;97645.92;108154;1272;59755;-73
2021/12/19 06:04:29;;;;;;;19.50;12.50;;;;;;;-1.39;89.66;97642.77;108432;1270;59610;-74
2021/12/19 06:06:58;;;;;;;20.00;13.20;;;;;;;-1.39;89.45;97639.02;108076;1275;71691;-74
2021/12/19 06:09:27;;;;;;;18.30;11.20;;;;;;;-1.39;89.49;97637.95;108496;1273;68964;-74
2021/12/19 06:11:56;;;;;;;18.90;11.70;;;;;;;-1.40;89.73;97638.16;108196;1272;68413;-75
2021/12/19 06:14:31;;;;;;;15.80;10.60;;;;;;;-1.36;89.41;97634.83;108392;1269;60563;-73
2021/12/19 06:17:02;;;;;;;21.20;12.40;;;;;;;-1.41;89.46;97632.55;108429;1273;59690;-73
2021/12/19 06:19:36;;;;;;;18.70;11.80;;;;;;;-1.44;89.59;97630.21;108143;1275;71599;-73
2021/12/19 06:22:05;;;;;;;21.00;12.60;;;;;;;-1.43;89.74;97632.75;108137;1272;66778;-74
2021/12/19 06:24:35;;;;;;;18.00;11.30;;;;;;;-1.42;89.75;97633.59;108439;1273;69421;-74
2021/12/19 06:27:07;;;;;;;21.90;13.10;;;;;;;-1.43;89.89;97629.67;108410;1273;59700;-74
2021/12/19 06:29:36;;;;;;;25.50;14.70;;;;;;;-1.48;90.34;97629.63;108388;1273;59754;-72
2021/12/19 06:32:05;;;;;;;18.80;12.20;;;;;;;-1.44;90.32;97624.92;108445;1269;70819;-73
2021/12/19 06:34:34;;;;;;;19.20;14.20;;;;;;;-1.44;90.61;97624.08;108402;1272;67951;-73
2021/12/19 06:37:08;;;;;;;28.20;15.70;;;;;;;-1.46;90.83;97616.59;108176;1274;68676;-73
2021/12/19 06:39:39;;;;;;;36.80;20.90;;;;;;;-1.45;91.08;97614.34;108311;1272;59681;-72
2021/12/19 06:42:10;;;;;;;32.90;19.20;;;;;;;-1.45;91.21;97610.23;108298;1270;59725;-73
2021/12/19 06:44:39;;;;;;;38.20;22.40;;;;;;;-1.47;91.32;97606.69;108249;1273;72255;-73
2021/12/19 06:47:08;;;;;;;30.40;17.90;;;;;;;-1.48;91.42;97601.23;108284;1273;68725;-72
2021/12/19 06:49:37;;;;;;;33.60;19.70;;;;;;;-1.46;91.53;97598.63;108215;1272;69526;-72
2021/12/19 06:52:06;;;;;;;37.10;22.20;;;;;;;-1.44;91.51;97594.15;108297;1269;59735;-73
2021/12/19 06:54:36;;;;;;;36.50;21.50;;;;;;;-1.48;91.54;97593.54;108280;1269;59701;-72
2021/12/19 06:57:04;;;;;;;34.80;19.60;;;;;;;-1.49;91.81;97591.34;108324;1273;70872;-72
2021/12/19 06:59:33;;;;;;;26.90;15.60;;;;;;;-1.47;91.90;97584.64;108314;1269;68660;-73
2021/12/19 07:02:03;;;;;;;26.90;15.60;;;;;;;-1.45;91.82;97586.30;108368;1273;69046;-73
2021/12/19 07:04:32;;;;;;;21.10;13.10;;;;;;;-1.43;91.79;97590.71;108267;1273;59707;-72
2021/12/19 07:07:01;;;;;;;27.20;16.90;;;;;;;-1.39;91.70;97588.90;108332;1273;59703;-73
2021/12/19 07:09:30;;;;;;;26.30;15.40;;;;;;;-1.38;91.43;97584.10;108352;1270;71631;-73
2021/12/19 07:12:00;;;;;;;23.20;13.60;;;;;;;-1.35;91.38;97585.05;108264;1269;67615;-72
2021/12/19 07:14:29;;;;;;;26.50;15.10;;;;;;;-1.33;91.25;97577.14;108040;1273;70068;-73
2021/12/19 07:16:58;;;;;;;29.10;18.40;;;;;;;-1.24;91.18;97571.98;108248;1269;59770;-73
2021/12/19 07:19:28;;;;;;;27.90;16.50;;;;;;;-1.22;90.59;97569.19;108383;1273;59640;-73
2021/12/19 07:21:57;;;;;;;29.30;15.40;;;;;;;-1.17;90.30;97566.67;108293;1272;72220;-72
2021/12/19 07:24:26;;;;;;;25.10;13.90;;;;;;;-1.12;90.25;97567.42;108289;1273;68612;-72
2021/12/19 07:26:55;;;;;;;28.40;17.30;;;;;;;-1.05;90.05;97556.14;108273;1272;69603;-72
2021/12/19 07:29:24;;;;;;;24.80;15.10;;;;;;;-1.04;89.59;97554.74;108392;1272;59693;-71
2021/12/19 07:31:53;;;;;;;19.50;12.00;;;;;;;-1.02;89.58;97557.77;108187;1272;59770;-72
2021/12/19 07:34:29;;;;;;;19.00;11.80;;;;;;;-1.02;89.37;97549.89;108249;1273;71360;-73
2021/12/19 07:37:00;;;;;;;20.70;13.30;;;;;;;-1.00;89.21;97549.67;108201;1272;67923;-70
2021/12/19 07:42:11;;;;;;;17.70;11.10;;;;;;;-1.10;89.19;97545.15;108309;1269;59766;-71
2021/12/19 07:44:41;;;;;;;22.30;14.00;;;;;;;-1.09;89.34;97545.27;108394;1273;59648;-71
2021/12/19 07:47:10;;;;;;;22.50;14.30;;;;;;;-1.07;89.06;97544.88;108250;1269;71647;-71
2021/12/19 07:49:39;;;;;;;15.90;10.10;;;;;;;-1.03;89.06;97547.53;108315;1273;68812;-71
2021/12/19 07:52:08;;;;;;;18.40;11.00;;;;;;;-0.99;88.95;97547.27;108274;1273;68629;-72
2021/12/19 07:54:37;;;;;;;18.70;12.30;;;;;;;-1.00;88.84;97539.94;108294;1273;59763;-71
2021/12/19 07:57:05;;;;;;;23.10;13.20;;;;;;;-1.01;88.78;97536.04;108380;1273;59694;-73
2021/12/19 07:59:34;;;;;;;19.60;11.70;;;;;;;-1.04;88.78;97539.68;108412;1273;71516;-72
2021/12/19 08:02:04;;;;;;;19.10;12.40;;;;;;;-1.03;88.71;97534.34;108305;1273;68645;-72
2021/12/19 08:04:33;;;;;;;21.20;13.60;;;;;;;-1.01;88.71;97526.63;108254;1273;70095;-72
2021/12/19 08:07:02;;;;;;;20.30;12.10;;;;;;;-1.02;88.82;97524.91;108307;1273;59754;-73
2021/12/19 08:09:40;;;;;;;25.10;15.10;;;;;;;-0.99;88.73;97517.17;108253;1273;59713;-73
2021/12/19 08:12:09;;;;;;;16.10;10.30;;;;;;;-0.98;88.68;97515.09;108300;1273;70567;-72
2021/12/19 08:14:38;;;;;;;22.40;14.20;;;;;;;-0.93;88.67;97509.31;108306;1269;68692;-72
2021/12/19 08:17:07;;;;;;;21.90;14.80;;;;;;;-0.95;88.57;97511.41;108343;1272;69450;-72
2021/12/19 08:19:36;;;;;;;16.30;11.30;;;;;;;-0.92;88.50;97513.06;108090;1274;60109;-71
2021/12/19 08:22:05;;;;;;;16.90;10.70;;;;;;;-0.89;88.60;97519.45;107737;1274;500602;-71
2021/12/19 08:24:34;;;;;;;19.60;11.90;;;;;;;-0.87;88.62;97515.14;108157;1272;72193;-71
2021/12/19 08:27:03;;;;;;;20.80;13.80;;;;;;;-0.91;88.25;97513.86;108144;1275;68703;-72
2021/12/19 08:29:32;;;;;;;23.20;15.30;;;;;;;-0.93;88.41;97509.83;108054;1272;68768;-74
2021/12/19 08:32:01;;;;;;;21.40;13.70;;;;;;;-0.96;88.67;97505.11;108068;1272;59735;-71
2021/12/19 08:34:30;;;;;;;21.60;14.50;;;;;;;-0.97;88.88;97510.61;108110;1271;59765;-73
2021/12/19 08:36:59;;;;;;;23.70;13.70;;;;;;;-0.97;89.02;97515.73;108176;1274;70866;-71
2021/12/19 08:39:30;;;;;;;23.00;13.50;;;;;;;-1.00;89.07;97510.69;108092;1272;68623;-72
2021/12/19 08:42:00;;;;;;;24.80;15.50;;;;;;;-0.99;89.13;97500.03;108119;1271;69503;-72
2021/12/19 08:44:29;;;;;;;;;;;;;;;-0.98;89.29;97492.48;108148;1272;59751;-72
2021/12/19 08:46:59;;;;;;;24.00;16.50;;;;;;;-1.01;89.31;97486.24;108003;1275;59755;-71
2021/12/19 08:49:28;;;;;;;27.90;16.90;;;;;;;-1.01;89.65;97482.30;108151;1274;71579;-71
2021/12/19 08:51:57;;;;;;;25.80;15.30;;;;;;;-0.98;89.67;97479.50;108080;1274;67969;-72
2021/12/19 08:54:25;;;;;;;25.70;15.10;;;;;;;-0.96;89.73;97477.23;108159;1272;69430;-74
2021/12/19 08:56:54;;;;;;;23.00;14.20;;;;;;;-0.95;89.54;97471.04;108064;1272;59748;-72
2021/12/19 08:59:24;;;;;;;21.60;14.00;;;;;;;-0.91;89.46;97471.78;108123;1275;59757;-73
2021/12/19 09:01:54;;;;;;;26.00;15.60;;;;;;;-0.87;89.49;97479.70;108119;1272;71386;-73
2021/12/19 09:04:24;;;;;;;18.60;11.60;;;;;;;-0.85;89.10;97477.61;108164;1272;68325;-73
2021/12/19 09:06:56;;;;;;;22.30;14.50;;;;;;;-0.80;89.04;97478.33;108174;1275;69473;-73
2021/12/19 09:09:25;;;;;;;18.30;11.50;;;;;;;-0.79;88.75;97474.37;108111;1273;59783;-73
2021/12/19 09:11:54;;;;;;;20.30;13.00;;;;;;;-0.78;88.46;97469.54;108096;1272;59787;-73
2021/12/19 09:14:24;;;;;;;19.10;12.80;;;;;;;-0.77;88.49;97467.31;108048;1272;71491;-73
2021/12/19 09:16:52;;;;;;;18.80;11.90;;;;;;;-0.80;88.36;97470.98;108084;1272;69243;-74
2021/12/19 09:19:21;;;;;;;17.90;12.00;;;;;;;-0.77;88.66;97463.03;108259;1272;68616;-74
2021/12/19 09:21:50;;;;;;;19.30;11.20;;;;;;;-0.76;88.27;97456.48;108378;1271;59676;-74
2021/12/19 09:24:20;;;;;;;24.10;15.80;;;;;;;-0.72;88.31;97454.68;108255;1273;59729;-74
2021/12/19 09:26:49;;;;;;;24.30;14.40;;;;;;;-0.70;88.47;97450.33;108297;1273;70986;-74
2021/12/19 09:29:18;;;;;;;27.80;16.50;;;;;;;-0.67;88.38;97445.65;108122;1273;67638;-75
2021/12/19 09:31:47;;;;;;;21.60;13.80;;;;;;;-0.66;88.34;97439.10;108242;1273;69289;-75
2021/12/19 09:34:16;;;;;;;21.20;13.50;;;;;;;-0.63;88.01;97428.57;108254;1272;59721;-74
2021/12/19 09:36:45;;;;;;;26.70;15.80;;;;;;;-0.61;87.81;97421.83;108259;1269;59729;-75
2021/12/19 09:39:14;;;;;;;39.70;25.80;;;;;;;-0.64;87.80;97407.56;108368;1273;71515;-75
2021/12/19 09:41:46;;;;;;;25.30;16.80;;;;;;;-0.71;88.25;97398.54;108152;1273;68894;-75
2021/12/19 09:44:16;;;;;;;35.20;25.40;;;;;;;-0.72;88.32;97381.92;108234;1272;69641;-75
2021/12/19 09:46:45;;;;;;;24.00;14.80;;;;;;;-0.70;88.23;97371.10;108318;1273;59620;-74
2021/12/19 09:49:17;;;;;;;18.00;11.50;;;;;;;-0.60;88.38;97365.67;108091;1272;59659;-74
2021/12/19 09:51:49;;;;;;;19.90;13.50;;;;;;;-0.50;87.95;97357.52;108295;1269;72113;-74
2021/12/19 09:54:19;;;;;;;24.10;14.70;;;;;;;-0.45;87.41;97360.29;108328;1272;68678;-74
2021/12/19 09:56:49;;;;;;;87.80;55.50;;;;;;;-0.42;87.77;97360.69;108329;1272;69423;-74
2021/12/19 09:59:20;;;;;;;19.50;13.40;;;;;;;-0.37;86.97;97361.77;108190;1274;59763;-75
2021/12/19 10:01:52;;;;;;;41.10;26.20;;;;;;;-0.32;87.02;97355.77;108318;1273;59767;-74
2021/12/19 10:04:37;;;;;;;31.50;21.10;;;;;;;-0.23;87.01;97354.48;108421;1273;71945;-74
2021/12/19 10:07:11;;;;;;;31.80;23.40;;;;;;;-0.15;86.51;97350.64;108198;1274;68616;-75
2021/12/19 10:09:59;;;;;;;16.70;12.70;;;;;;;-0.09;85.77;97339.80;108361;1269;70161;-74
2021/12/19 10:15:33;;;;;;;20.60;15.30;;;;;;;0.05;84.77;97333.05;108076;1275;59725;-73
2021/12/19 10:18:08;;;;;;;27.10;20.40;;;;;;;0.08;84.13;97330.19;107748;1279;71664;-75
2021/12/19 10:20:45;;;;;;;14.90;9.50;;;;;;;0.06;83.77;97325.98;107901;1279;68726;-74
2021/12/19 10:23:18;;;;;;;15.70;11.10;;;;;;;0.13;84.45;97318.38;107822;1279;69506;-74
2021/12/19 10:25:57;;;;;;;15.00;9.90;;;;;;;0.20;83.68;97311.64;107847;1278;59808;-75
2021/12/19 10:28:28;;;;;;;15.50;13.80;;;;;;;0.29;83.88;97300.36;107711;1280;59703;-75
2021/12/19 10:30:59;;;;;;;19.60;14.30;;;;;;;0.40;83.74;97297.58;107906;1279;71671;-75
2021/12/19 10:33:32;;;;;;;17.30;10.90;;;;;;;0.45;83.20;97289.36;107758;1279;69393;-75
2021/12/19 10:36:05;;;;;;;11.90;9.60;;;;;;;0.55;83.81;97276.34;107767;1275;69464;-75
2021/12/19 10:38:43;;;;;;;16.50;11.40;;;;;;;0.65;83.73;97271.16;107822;1279;59752;-75
2021/12/19 10:41:30;;;;;;;16.20;10.20;;;;;;;0.76;83.03;97259.11;107825;1276;59759;-74
2021/12/19 10:46:39;;;;;;;13.30;9.80;;;;;;;0.82;81.25;97254.09;107872;1279;69255;-75
2021/12/19 10:49:32;;;;;;;12.50;8.20;;;;;;;0.86;82.27;97253.59;107830;1279;69251;-75
2021/12/19 10:52:04;;;;;;;12.50;7.50;;;;;;;0.94;82.22;97252.09;107687;1279;59697;-75
2021/12/19 10:54:35;;;;;;;11.90;8.40;;;;;;;0.99;81.96;97242.98;107870;1275;59719;-76
2021/12/19 10:57:12;;;;;;;16.10;10.60;;;;;;;1.05;81.05;97238.50;108106;1272;72247;-75
2021/12/19 10:59:43;;;;;;;15.40;10.50;;;;;;;1.13;81.20;97225.31;108062;1275;68614;-75
2021/12/19 11:02:14;;;;;;;12.00;8.00;;;;;;;1.27;80.79;97215.52;108098;1272;69427;-75
2021/12/19 11:04:42;;;;;;;21.90;18.70;;;;;;;1.36;79.25;97208.65;108066;1272;59731;-75
2021/12/19 11:07:22;;;;;;;14.10;10.30;;;;;;;1.30;79.75;97203.88;108098;1272;59702;-75
2021/12/19 11:09:51;;;;;;;14.40;11.00;;;;;;;1.38;79.12;97195.30;108088;1272;69806;-75
2021/12/19 11:12:20;;;;;;;16.80;11.00;;;;;;;1.40;78.76;97188.54;108090;1274;68937;-76
2021/12/19 11:14:49;;;;;;;15.60;11.50;;;;;;;1.39;78.03;97185.48;108016;1276;69522;-76
2021/12/19 11:17:23;;;;;;;17.60;12.40;;;;;;;1.39;78.27;97174.52;108138;1273;59671;-75
2021/12/19 11:19:55;;;;;;;18.50;12.50;;;;;;;1.41;78.96;97170.84;108312;1273;59731;-76
2021/12/19 11:22:27;;;;;;;15.10;11.90;;;;;;;1.41;78.79;97165.69;108376;1272;72179;-75
2021/12/19 11:25:03;;;;;;;12.90;9.40;;;;;;;1.44;79.27;97158.88;108185;1273;68489;-75
2021/12/19 11:27:34;;;;;;;17.40;11.70;;;;;;;1.56;79.13;97142.91;108100;1275;70100;-76
2021/12/19 11:30:04;;;;;;;16.00;9.90;;;;;;;1.61;78.25;97127.59;108181;1273;59700;-75
2021/12/19 11:32:58;;;;;;;14.30;10.80;;;;;;;1.62;77.46;97116.54;108098;1273;59694;-76
2021/12/19 11:35:31;;;;;;;17.60;13.00;;;;;;;1.55;78.29;97118.20;108003;1275;72181;-76
2021/12/19 11:38:04;;;;;;;18.10;12.30;;;;;;;1.49;78.34;97124.13;108126;1273;66961;-75
2021/12/19 11:40:36;;;;;;;19.10;12.60;;;;;;;1.31;77.88;97118.16;108158;1273;70026;-76
2021/12/19 11:43:08;;;;;;;14.70;10.20;;;;;;;1.11;78.48;97112.45;108120;1272;59779;-76
2021/12/19 11:45:41;;;;;;;18.00;10.70;;;;;;;1.09;78.85;97101.55;108050;1274;59685;-75
2021/12/19 11:48:18;;;;;;;16.30;10.10;;;;;;;1.13;78.89;97088.34;108291;1272;70557;-75
2021/12/19 11:50:56;;;;;;;16.80;11.70;;;;;;;1.09;78.89;97092.10;108214;1273;68698;-75
2021/12/19 11:53:38;;;;;;;20.00;13.40;;;;;;;1.06;79.56;97088.95;108339;1269;69085;-75
2021/12/19 11:56:10;;;;;;;16.80;10.40;;;;;;;1.10;79.50;97085.56;108365;1269;59751;-75
2021/12/19 11:58:45;;;;;;;12.90;9.00;;;;;;;1.15;79.33;97081.04;108363;1270;59701;-75
2021/12/19 12:01:14;;;;;;;22.30;15.10;;;;;;;1.16;78.77;97078.94;108327;1269;71855;-76
2021/12/19 12:03:57;;;;;;;15.40;11.00;;;;;;;1.01;78.42;97075.42;108334;1272;67982;-76
2021/12/19 12:06:32;;;;;;;15.30;11.60;;;;;;;0.94;79.08;97072.97;108350;1269;69470;-76
2021/12/19 12:09:24;;;;;;;16.70;11.10;;;;;;;0.87;78.69;97068.80;108380;1270;59722;-76
2021/12/19 12:12:14;;;;;;;16.80;10.00;;;;;;;0.86;79.12;97068.15;108437;1272;60047;-76
2021/12/19 12:15:04;;;;;;;16.00;10.10;;;;;;;0.85;79.06;97060.65;108381;1270;70847;-76
2021/12/19 12:17:39;;;;;;;;;;;;;;;0.85;79.13;97055.13;108450;1269;69673;-76
2021/12/19 12:20:14;;;;;;;16.20;11.40;;;;;;;0.84;79.24;97057.22;108172;1269;68922;-76
2021/12/19 12:23:05;;;;;;;14.00;9.90;;;;;;;0.82;79.12;97054.20;108421;1269;59738;-75
2021/12/19 12:25:40;;;;;;;13.40;9.20;;;;;;;0.87;79.38;97046.65;108422;1269;59786;-75
2021/12/19 12:28:18;;;;;;;16.10;10.50;;;;;;;0.93;79.04;97040.77;108179;1269;71602;-75
2021/12/19 12:30:54;;;;;;;12.90;9.10;;;;;;;0.97;78.89;97038.69;108254;1270;68701;-75
2021/12/19 12:33:28;;;;;;;11.30;8.60;;;;;;;1.05;79.36;97032.88;108139;1274;69480;-75
2021/12/19 12:35:57;;;;;;;12.50;8.40;;;;;;;1.10;79.40;97031.85;108147;1272;59671;-75
2021/12/19 12:38:27;;;;;;;18.50;12.20;;;;;;;1.11;79.17;97025.61;108133;1272;59686;-75
2021/12/19 12:41:09;;;;;;;16.80;11.10;;;;;;;1.10;79.16;97022.73;108170;1273;70952;-75
2021/12/19 12:43:43;;;;;;;9.80;6.70;;;;;;;1.12;79.11;97010.65;108133;1272;67946;-75